sensor_id;sensor_type;location;lat;lon;timestamp;temperature;humidity
20204;DHT22;10261;49.010;12.034;2023-02-14T00:00:13;5.30;99.90
20204;DHT22;10261;49.010;12.034;2023-02-14T00:01:16;5.30;99.90
20204;DHT22;10261;49.010;12.034;2023-02-14T00:02:19;5.30;99.90
20204;DHT22;10261;49.010;12.034;2023-02-14T00:03:21;5.30;99.90
20204;DHT22;10261;49.010;12.034;2023-02-14T00:04:24;5.30;99.90
20204;DHT22;10261;49.010;12.034;2023-02-14T00:05:26;5.30;99.90
20204;DHT22;10261;49.010;12.034;2023-02-14T00:06:31;5.30;99.90
20204;DHT22;10261;49.010;12.034;2023-02-14T00:07:35;5.30;99.90
20204;DHT22;10261;49.010;12.034;2023-02-14T00:08:39;5.30;99.90
20204;DHT22;10261;49.010;12.034;2023-02-14T00:09:41;5.30;99.90
20204;DHT22;10261;49.010;12.034;2023-02-14T00:10:45;5.30;99.90
20204;DHT22;10261;49.010;12.034;2023-02-14T00:11:48;5.30;99.90
20204;DHT22;10261;49.010;12.034;2023-02-14T00:12:50;5.30;99.90
20204;DHT22;10261;49.010;12.034;2023-02-14T00:13:54;5.30;99.90
20204;DHT22;10261;49.010;12.034;2023-02-14T00:15:15;5.30;99.90
20204;DHT22;10261;49.010;12.034;2023-02-14T00:16:23;5.30;99.90
20204;DHT22;10261;49.010;12.034;2023-02-14T00:17:25;5.30;99.90
20204;DHT22;10261;49.010;12.034;2023-02-14T00:18:28;5.20;99.90
20204;DHT22;10261;49.010;12.034;2023-02-14T00:19:45;5.20;99.90
20204;DHT22;10261;49.010;12.034;2023-02-14T00:20:47;5.20;99.90
20204;DHT22;10261;49.010;12.034;2023-02-14T00:21:51;5.20;99.90
20204;DHT22;10261;49.010;12.034;2023-02-14T00:22:53;5.20;99.90
20204;DHT22;10261;49.010;12.034;2023-02-14T00:23:56;5.20;99.90
20204;DHT22;10261;49.010;12.034;2023-02-14T00:24:58;5.10;99.90
20204;DHT22;10261;49.010;12.034;2023-02-14T00:26:01;5.10;99.90
20204;DHT22;10261;49.010;12.034;2023-02-14T00:27:03;5.10;99.90
20204;DHT22;10261;49.010;12.034;2023-02-14T00:28:06;5.10;99.90
20204;DHT22;10261;49.010;12.034;2023-02-14T00:29:12;5.10;99.90
20204;DHT22;10261;49.010;12.034;2023-02-14T00:30:14;5.20;99.90
20204;DHT22;10261;49.010;12.034;2023-02-14T00:31:17;5.20;99.90
20204;DHT22;10261;49.010;12.034;2023-02-14T00:32:20;5.20;99.90
20204;DHT22;10261;49.010;12.034;2023-02-14T00:33:23;5.10;99.90
20204;DHT22;10261;49.010;12.034;2023-02-14T00:34:25;5.20;99.90
20204;DHT22;10261;49.010;12.034;2023-02-14T00:35:28;5.10;99.90
20204;DHT22;10261;49.010;12.034;2023-02-14T00:36:31;5.10;99.90
20204;DHT22;10261;49.010;12.034;2023-02-14T00:39:19;5.10;99.90
20204;DHT22;10261;49.010;12.034;2023-02-14T00:40:22;5.20;99.90
20204;DHT22;10261;49.010;12.034;2023-02-14T00:41:24;5.10;99.90
20204;DHT22;10261;49.010;12.034;2023-02-14T00:42:27;5.10;99.90
20204;DHT22;10261;49.010;12.034;2023-02-14T00:43:30;5.10;99.90
20204;DHT22;10261;49.010;12.034;2023-02-14T00:44:34;5.10;99.90
20204;DHT22;10261;49.010;12.034;2023-02-14T00:45:38;5.10;99.90
20204;DHT22;10261;49.010;12.034;2023-02-14T00:46:40;5.20;99.90
20204;DHT22;10261;49.010;12.034;2023-02-14T00:47:44;5.10;99.90
20204;DHT22;10261;49.010;12.034;2023-02-14T00:48:46;5.10;99.90
20204;DHT22;10261;49.010;12.034;2023-02-14T00:49:49;5.20;99.90
20204;DHT22;10261;49.010;12.034;2023-02-14T00:50:52;5.10;99.90
20204;DHT22;10261;49.010;12.034;2023-02-14T00:51:54;5.20;99.90
20204;DHT22;10261;49.010;12.034;2023-02-14T00:52:57;5.20;99.90
20204;DHT22;10261;49.010;12.034;2023-02-14T00:53:59;5.10;99.90
20204;DHT22;10261;49.010;12.034;2023-02-14T00:55:02;5.20;99.90
20204;DHT22;10261;49.010;12.034;2023-02-14T00:56:05;5.20;99.90
20204;DHT22;10261;49.010;12.034;2023-02-14T00:57:08;5.10;99.90
20204;DHT22;10261;49.010;12.034;2023-02-14T00:58:10;5.20;99.90
20204;DHT22;10261;49.010;12.034;2023-02-14T00:59:13;5.10;99.90
20204;DHT22;10261;49.010;12.034;2023-02-14T01:00:17;5.10;99.90
20204;DHT22;10261;49.010;12.034;2023-02-14T01:01:20;5.10;99.90
20204;DHT22;10261;49.010;12.034;2023-02-14T01:02:22;5.10;99.90
20204;DHT22;10261;49.010;12.034;2023-02-14T01:03:25;5.10;99.90
20204;DHT22;10261;49.010;12.034;2023-02-14T01:04:28;5.10;99.90
20204;DHT22;10261;49.010;12.034;2023-02-14T01:05:30;5.10;99.90
20204;DHT22;10261;49.010;12.034;2023-02-14T01:06:32;5.10;99.90
20204;DHT22;10261;49.010;12.034;2023-02-14T01:07:35;5.10;99.90
20204;DHT22;10261;49.010;12.034;2023-02-14T01:08:37;5.20;99.90
20204;DHT22;10261;49.010;12.034;2023-02-14T01:09:40;5.20;99.90
20204;DHT22;10261;49.010;12.034;2023-02-14T01:10:43;5.10;99.90
20204;DHT22;10261;49.010;12.034;2023-02-14T01:11:46;5.20;99.90
20204;DHT22;10261;49.010;12.034;2023-02-14T01:12:49;5.20;99.90
20204;DHT22;10261;49.010;12.034;2023-02-14T01:13:54;5.20;99.90
20204;DHT22;10261;49.010;12.034;2023-02-14T01:14:57;5.10;99.90
20204;DHT22;10261;49.010;12.034;2023-02-14T01:16:05;5.10;99.90
20204;DHT22;10261;49.010;12.034;2023-02-14T01:17:08;5.00;99.90
20204;DHT22;10261;49.010;12.034;2023-02-14T01:18:10;5.10;99.90
20204;DHT22;10261;49.010;12.034;2023-02-14T01:19:14;5.10;99.90
20204;DHT22;10261;49.010;12.034;2023-02-14T01:20:16;5.10;99.90
20204;DHT22;10261;49.010;12.034;2023-02-14T01:21:21;5.10;99.90
20204;DHT22;10261;49.010;12.034;2023-02-14T01:22:23;5.10;99.90
20204;DHT22;10261;49.010;12.034;2023-02-14T01:23:26;5.10;99.90
20204;DHT22;10261;49.010;12.034;2023-02-14T01:24:28;5.00;99.90
20204;DHT22;10261;49.010;12.034;2023-02-14T01:25:32;5.00;99.90
20204;DHT22;10261;49.010;12.034;2023-02-14T01:26:34;5.00;99.90
20204;DHT22;10261;49.010;12.034;2023-02-14T01:27:37;5.00;99.90
20204;DHT22;10261;49.010;12.034;2023-02-14T01:28:40;5.10;99.90
20204;DHT22;10261;49.010;12.034;2023-02-14T01:29:43;5.10;99.90
20204;DHT22;10261;49.010;12.034;2023-02-14T01:30:45;5.10;99.90
20204;DHT22;10261;49.010;12.034;2023-02-14T01:31:50;5.10;99.90
20204;DHT22;10261;49.010;12.034;2023-02-14T01:32:53;5.10;99.90
20204;DHT22;10261;49.010;12.034;2023-02-14T01:33:55;5.10;99.90
20204;DHT22;10261;49.010;12.034;2023-02-14T01:35:03;5.10;99.90
20204;DHT22;10261;49.010;12.034;2023-02-14T01:36:06;5.10;99.90
20204;DHT22;10261;49.010;12.034;2023-02-14T01:37:09;5.10;99.90
20204;DHT22;10261;49.010;12.034;2023-02-14T01:38:12;5.10;99.90
20204;DHT22;10261;49.010;12.034;2023-02-14T01:39:15;5.10;99.90
20204;DHT22;10261;49.010;12.034;2023-02-14T01:40:19;5.00;99.90
20204;DHT22;10261;49.010;12.034;2023-02-14T01:41:22;5.00;99.90
20204;DHT22;10261;49.010;12.034;2023-02-14T01:42:25;5.00;99.90
20204;DHT22;10261;49.010;12.034;2023-02-14T01:43:28;4.90;99.90
20204;DHT22;10261;49.010;12.034;2023-02-14T01:45:02;5.00;99.90
20204;DHT22;10261;49.010;12.034;2023-02-14T01:46:05;5.00;99.90
20204;DHT22;10261;49.010;12.034;2023-02-14T01:47:09;5.00;99.90
20204;DHT22;10261;49.010;12.034;2023-02-14T01:48:13;5.10;99.90
20204;DHT22;10261;49.010;12.034;2023-02-14T01:49:19;5.10;99.90
20204;DHT22;10261;49.010;12.034;2023-02-14T01:50:26;5.10;99.90
20204;DHT22;10261;49.010;12.034;2023-02-14T01:51:31;5.10;99.90
20204;DHT22;10261;49.010;12.034;2023-02-14T01:52:39;5.10;99.90
20204;DHT22;10261;49.010;12.034;2023-02-14T01:53:42;5.10;99.90
20204;DHT22;10261;49.010;12.034;2023-02-14T01:54:49;5.10;99.90
20204;DHT22;10261;49.010;12.034;2023-02-14T01:55:59;5.10;99.90
20204;DHT22;10261;49.010;12.034;2023-02-14T01:57:06;5.20;99.90
20204;DHT22;10261;49.010;12.034;2023-02-14T01:58:12;5.20;99.90
20204;DHT22;10261;49.010;12.034;2023-02-14T01:59:20;5.20;99.90
20204;DHT22;10261;49.010;12.034;2023-02-14T02:00:24;5.10;99.90
20204;DHT22;10261;49.010;12.034;2023-02-14T02:01:45;5.10;99.90
20204;DHT22;10261;49.010;12.034;2023-02-14T02:02:51;5.20;99.90
20204;DHT22;10261;49.010;12.034;2023-02-14T02:03:55;5.20;99.90
20204;DHT22;10261;49.010;12.034;2023-02-14T02:04:58;5.20;99.90
20204;DHT22;10261;49.010;12.034;2023-02-14T02:06:07;5.10;99.90
20204;DHT22;10261;49.010;12.034;2023-02-14T02:07:13;5.10;99.90
20204;DHT22;10261;49.010;12.034;2023-02-14T02:08:17;5.10;99.90
20204;DHT22;10261;49.010;12.034;2023-02-14T02:09:23;5.10;99.90
20204;DHT22;10261;49.010;12.034;2023-02-14T02:10:26;5.10;99.90
20204;DHT22;10261;49.010;12.034;2023-02-14T02:11:29;5.10;99.90
20204;DHT22;10261;49.010;12.034;2023-02-14T02:12:32;5.20;99.90
20204;DHT22;10261;49.010;12.034;2023-02-14T02:13:36;5.20;99.90
20204;DHT22;10261;49.010;12.034;2023-02-14T02:14:39;5.10;99.90
20204;DHT22;10261;49.010;12.034;2023-02-14T02:15:52;5.10;99.90
20204;DHT22;10261;49.010;12.034;2023-02-14T02:17:15;5.10;99.90
20204;DHT22;10261;49.010;12.034;2023-02-14T02:18:25;5.10;99.90
20204;DHT22;10261;49.010;12.034;2023-02-14T02:21:38;5.10;99.90
20204;DHT22;10261;49.010;12.034;2023-02-14T02:24:39;5.10;99.90
20204;DHT22;10261;49.010;12.034;2023-02-14T02:27:32;5.10;99.90
20204;DHT22;10261;49.010;12.034;2023-02-14T02:30:38;5.10;99.90
20204;DHT22;10261;49.010;12.034;2023-02-14T02:32:10;5.10;99.90
20204;DHT22;10261;49.010;12.034;2023-02-14T02:35:17;5.20;99.90
20204;DHT22;10261;49.010;12.034;2023-02-14T02:38:07;5.10;99.90
20204;DHT22;10261;49.010;12.034;2023-02-14T02:39:26;5.10;99.90
20204;DHT22;10261;49.010;12.034;2023-02-14T02:40:39;5.10;99.90
20204;DHT22;10261;49.010;12.034;2023-02-14T02:41:54;5.10;99.90
20204;DHT22;10261;49.010;12.034;2023-02-14T02:43:06;5.10;99.90
20204;DHT22;10261;49.010;12.034;2023-02-14T02:44:15;5.10;99.90
20204;DHT22;10261;49.010;12.034;2023-02-14T02:45:26;5.10;99.90
20204;DHT22;10261;49.010;12.034;2023-02-14T02:46:34;5.10;99.90
20204;DHT22;10261;49.010;12.034;2023-02-14T02:47:55;5.10;99.90
20204;DHT22;10261;49.010;12.034;2023-02-14T02:49:03;5.10;99.90
20204;DHT22;10261;49.010;12.034;2023-02-14T02:50:19;5.10;99.90
20204;DHT22;10261;49.010;12.034;2023-02-14T02:51:47;5.10;99.90
20204;DHT22;10261;49.010;12.034;2023-02-14T02:53:17;5.10;99.90
20204;DHT22;10261;49.010;12.034;2023-02-14T02:54:27;5.10;99.90
20204;DHT22;10261;49.010;12.034;2023-02-14T02:55:42;5.10;99.90
20204;DHT22;10261;49.010;12.034;2023-02-14T02:57:08;5.10;99.90
20204;DHT22;10261;49.010;12.034;2023-02-14T02:58:12;5.00;99.90
20204;DHT22;10261;49.010;12.034;2023-02-14T02:59:17;5.10;99.90
20204;DHT22;10261;49.010;12.034;2023-02-14T03:00:22;5.10;99.90
20204;DHT22;10261;49.010;12.034;2023-02-14T03:01:28;5.00;99.90
20204;DHT22;10261;49.010;12.034;2023-02-14T03:02:37;5.00;99.90
20204;DHT22;10261;49.010;12.034;2023-02-14T03:03:58;4.90;99.90
20204;DHT22;10261;49.010;12.034;2023-02-14T03:05:33;5.00;99.90
20204;DHT22;10261;49.010;12.034;2023-02-14T03:06:36;5.00;99.90
20204;DHT22;10261;49.010;12.034;2023-02-14T03:07:39;5.00;99.90
20204;DHT22;10261;49.010;12.034;2023-02-14T03:08:42;5.00;99.90
20204;DHT22;10261;49.010;12.034;2023-02-14T03:09:50;5.00;99.90
20204;DHT22;10261;49.010;12.034;2023-02-14T03:10:54;5.00;99.90
20204;DHT22;10261;49.010;12.034;2023-02-14T03:12:02;5.10;99.90
20204;DHT22;10261;49.010;12.034;2023-02-14T03:13:42;5.10;99.90
20204;DHT22;10261;49.010;12.034;2023-02-14T03:14:50;5.10;99.90
20204;DHT22;10261;49.010;12.034;2023-02-14T03:16:27;5.10;99.90
20204;DHT22;10261;49.010;12.034;2023-02-14T03:17:35;5.10;99.90
20204;DHT22;10261;49.010;12.034;2023-02-14T03:18:47;5.10;99.90
20204;DHT22;10261;49.010;12.034;2023-02-14T03:19:59;5.10;99.90
20204;DHT22;10261;49.010;12.034;2023-02-14T03:21:26;5.10;99.90
20204;DHT22;10261;49.010;12.034;2023-02-14T03:22:42;5.10;99.90
20204;DHT22;10261;49.010;12.034;2023-02-14T03:23:53;5.10;99.90
20204;DHT22;10261;49.010;12.034;2023-02-14T03:25:01;5.10;99.90
20204;DHT22;10261;49.010;12.034;2023-02-14T03:26:13;5.10;99.90
20204;DHT22;10261;49.010;12.034;2023-02-14T03:27:21;5.00;99.90
20204;DHT22;10261;49.010;12.034;2023-02-14T03:28:31;5.10;99.90
20204;DHT22;10261;49.010;12.034;2023-02-14T03:29:44;5.00;99.90
20204;DHT22;10261;49.010;12.034;2023-02-14T03:30:54;5.00;99.90
20204;DHT22;10261;49.010;12.034;2023-02-14T03:32:02;5.00;99.90
20204;DHT22;10261;49.010;12.034;2023-02-14T03:33:12;5.00;99.90
20204;DHT22;10261;49.010;12.034;2023-02-14T03:34:23;5.00;99.90
20204;DHT22;10261;49.010;12.034;2023-02-14T03:35:33;5.00;99.90
20204;DHT22;10261;49.010;12.034;2023-02-14T03:36:40;5.00;99.90
20204;DHT22;10261;49.010;12.034;2023-02-14T03:37:49;5.00;99.90
20204;DHT22;10261;49.010;12.034;2023-02-14T03:38:54;5.00;99.90
20204;DHT22;10261;49.010;12.034;2023-02-14T03:40:04;5.00;99.90
20204;DHT22;10261;49.010;12.034;2023-02-14T03:41:10;5.00;99.90
20204;DHT22;10261;49.010;12.034;2023-02-14T03:42:19;4.90;99.90
20204;DHT22;10261;49.010;12.034;2023-02-14T03:43:25;4.90;99.90
20204;DHT22;10261;49.010;12.034;2023-02-14T03:44:33;4.90;99.90
20204;DHT22;10261;49.010;12.034;2023-02-14T03:45:39;4.90;99.90
20204;DHT22;10261;49.010;12.034;2023-02-14T03:46:45;4.90;99.90
20204;DHT22;10261;49.010;12.034;2023-02-14T03:47:49;4.90;99.90
20204;DHT22;10261;49.010;12.034;2023-02-14T03:48:55;4.90;99.90
20204;DHT22;10261;49.010;12.034;2023-02-14T03:50:03;4.90;99.90
20204;DHT22;10261;49.010;12.034;2023-02-14T03:51:09;4.80;99.90
20204;DHT22;10261;49.010;12.034;2023-02-14T03:52:15;4.80;99.90
20204;DHT22;10261;49.010;12.034;2023-02-14T03:53:21;4.90;99.90
20204;DHT22;10261;49.010;12.034;2023-02-14T03:54:27;4.90;99.90
20204;DHT22;10261;49.010;12.034;2023-02-14T03:55:35;4.90;99.90
20204;DHT22;10261;49.010;12.034;2023-02-14T03:56:42;5.00;99.90
20204;DHT22;10261;49.010;12.034;2023-02-14T03:57:52;4.90;99.90
20204;DHT22;10261;49.010;12.034;2023-02-14T03:58:59;4.90;99.90
20204;DHT22;10261;49.010;12.034;2023-02-14T04:00:08;4.90;99.90
20204;DHT22;10261;49.010;12.034;2023-02-14T04:01:18;4.90;99.90
20204;DHT22;10261;49.010;12.034;2023-02-14T04:02:28;4.90;99.90
20204;DHT22;10261;49.010;12.034;2023-02-14T04:03:32;5.00;99.90
20204;DHT22;10261;49.010;12.034;2023-02-14T04:04:39;4.90;99.90
20204;DHT22;10261;49.010;12.034;2023-02-14T04:05:44;4.90;99.90
20204;DHT22;10261;49.010;12.034;2023-02-14T04:06:52;4.90;99.90
20204;DHT22;10261;49.010;12.034;2023-02-14T04:07:58;4.90;99.90
20204;DHT22;10261;49.010;12.034;2023-02-14T04:09:01;4.90;99.90
20204;DHT22;10261;49.010;12.034;2023-02-14T04:10:03;4.90;99.90
20204;DHT22;10261;49.010;12.034;2023-02-14T04:11:08;5.00;99.90
20204;DHT22;10261;49.010;12.034;2023-02-14T04:12:10;5.00;99.90
20204;DHT22;10261;49.010;12.034;2023-02-14T04:13:13;5.00;99.90
20204;DHT22;10261;49.010;12.034;2023-02-14T04:14:16;5.00;99.90
20204;DHT22;10261;49.010;12.034;2023-02-14T04:15:19;5.00;99.90
20204;DHT22;10261;49.010;12.034;2023-02-14T04:16:21;5.00;99.90
20204;DHT22;10261;49.010;12.034;2023-02-14T04:17:24;5.00;99.90
20204;DHT22;10261;49.010;12.034;2023-02-14T04:18:44;5.00;99.90
20204;DHT22;10261;49.010;12.034;2023-02-14T04:20:06;5.00;99.90
20204;DHT22;10261;49.010;12.034;2023-02-14T04:21:08;4.90;99.90
20204;DHT22;10261;49.010;12.034;2023-02-14T04:22:10;4.90;99.90
20204;DHT22;10261;49.010;12.034;2023-02-14T04:23:14;4.90;99.90
20204;DHT22;10261;49.010;12.034;2023-02-14T04:24:17;4.90;99.90
20204;DHT22;10261;49.010;12.034;2023-02-14T04:25:20;4.90;99.90
20204;DHT22;10261;49.010;12.034;2023-02-14T04:26:23;5.00;99.90
20204;DHT22;10261;49.010;12.034;2023-02-14T04:27:25;5.00;99.90
20204;DHT22;10261;49.010;12.034;2023-02-14T04:28:29;5.00;99.90
20204;DHT22;10261;49.010;12.034;2023-02-14T04:29:32;5.00;99.90
20204;DHT22;10261;49.010;12.034;2023-02-14T04:30:34;5.00;99.90
20204;DHT22;10261;49.010;12.034;2023-02-14T04:31:37;4.90;99.90
20204;DHT22;10261;49.010;12.034;2023-02-14T04:32:39;4.90;99.90
20204;DHT22;10261;49.010;12.034;2023-02-14T04:33:42;4.90;99.90
20204;DHT22;10261;49.010;12.034;2023-02-14T04:34:47;4.90;99.90
20204;DHT22;10261;49.010;12.034;2023-02-14T04:35:50;4.90;99.90
20204;DHT22;10261;49.010;12.034;2023-02-14T04:36:52;4.90;99.90
20204;DHT22;10261;49.010;12.034;2023-02-14T04:37:55;4.90;99.90
20204;DHT22;10261;49.010;12.034;2023-02-14T04:38:59;4.90;99.90
20204;DHT22;10261;49.010;12.034;2023-02-14T04:40:01;4.90;99.90
20204;DHT22;10261;49.010;12.034;2023-02-14T04:41:04;4.90;99.90
20204;DHT22;10261;49.010;12.034;2023-02-14T04:42:06;4.90;99.90
20204;DHT22;10261;49.010;12.034;2023-02-14T04:43:09;4.90;99.90
20204;DHT22;10261;49.010;12.034;2023-02-14T04:44:12;4.90;99.90
20204;DHT22;10261;49.010;12.034;2023-02-14T04:45:14;4.90;99.90
20204;DHT22;10261;49.010;12.034;2023-02-14T04:46:17;4.90;99.90
20204;DHT22;10261;49.010;12.034;2023-02-14T04:47:19;4.90;99.90
20204;DHT22;10261;49.010;12.034;2023-02-14T04:48:22;4.90;99.90
20204;DHT22;10261;49.010;12.034;2023-02-14T04:49:24;4.90;99.90
20204;DHT22;10261;49.010;12.034;2023-02-14T04:50:27;4.90;99.90
20204;DHT22;10261;49.010;12.034;2023-02-14T04:51:29;4.90;99.90
20204;DHT22;10261;49.010;12.034;2023-02-14T04:52:32;4.90;99.90
20204;DHT22;10261;49.010;12.034;2023-02-14T04:53:34;4.90;99.90
20204;DHT22;10261;49.010;12.034;2023-02-14T04:54:42;4.80;99.90
20204;DHT22;10261;49.010;12.034;2023-02-14T04:55:44;4.80;99.90
20204;DHT22;10261;49.010;12.034;2023-02-14T04:56:47;4.90;99.90
20204;DHT22;10261;49.010;12.034;2023-02-14T04:57:49;4.90;99.90
20204;DHT22;10261;49.010;12.034;2023-02-14T04:58:53;4.90;99.90
20204;DHT22;10261;49.010;12.034;2023-02-14T04:59:55;4.80;99.90
20204;DHT22;10261;49.010;12.034;2023-02-14T05:00:58;4.80;99.90
20204;DHT22;10261;49.010;12.034;2023-02-14T05:02:00;4.80;99.90
20204;DHT22;10261;49.010;12.034;2023-02-14T05:03:03;4.80;99.90
20204;DHT22;10261;49.010;12.034;2023-02-14T05:04:06;4.80;99.90
20204;DHT22;10261;49.010;12.034;2023-02-14T05:05:09;4.80;99.90
20204;DHT22;10261;49.010;12.034;2023-02-14T05:06:11;4.90;99.90
20204;DHT22;10261;49.010;12.034;2023-02-14T05:07:14;4.90;99.90
20204;DHT22;10261;49.010;12.034;2023-02-14T05:08:16;4.90;99.90
20204;DHT22;10261;49.010;12.034;2023-02-14T05:09:19;4.90;99.90
20204;DHT22;10261;49.010;12.034;2023-02-14T05:10:22;4.80;99.90
20204;DHT22;10261;49.010;12.034;2023-02-14T05:11:25;4.80;99.90
20204;DHT22;10261;49.010;12.034;2023-02-14T05:12:27;4.80;99.90
20204;DHT22;10261;49.010;12.034;2023-02-14T05:13:30;4.80;99.90
20204;DHT22;10261;49.010;12.034;2023-02-14T05:14:32;4.80;99.90
20204;DHT22;10261;49.010;12.034;2023-02-14T05:15:35;4.70;99.90
20204;DHT22;10261;49.010;12.034;2023-02-14T05:16:39;4.60;99.90
20204;DHT22;10261;49.010;12.034;2023-02-14T05:17:42;4.60;99.90
20204;DHT22;10261;49.010;12.034;2023-02-14T05:18:44;4.60;99.90
20204;DHT22;10261;49.010;12.034;2023-02-14T05:19:48;4.50;99.90
20204;DHT22;10261;49.010;12.034;2023-02-14T05:20:52;4.60;99.90
20204;DHT22;10261;49.010;12.034;2023-02-14T05:21:54;4.50;99.90
20204;DHT22;10261;49.010;12.034;2023-02-14T05:22:57;4.50;99.90
20204;DHT22;10261;49.010;12.034;2023-02-14T05:24:04;4.50;99.90
20204;DHT22;10261;49.010;12.034;2023-02-14T05:25:07;4.50;99.90
20204;DHT22;10261;49.010;12.034;2023-02-14T05:26:11;4.40;99.90
20204;DHT22;10261;49.010;12.034;2023-02-14T05:27:14;4.40;99.90
20204;DHT22;10261;49.010;12.034;2023-02-14T05:28:16;4.40;99.90
20204;DHT22;10261;49.010;12.034;2023-02-14T05:29:19;4.50;99.90
20204;DHT22;10261;49.010;12.034;2023-02-14T05:30:21;4.50;99.90
20204;DHT22;10261;49.010;12.034;2023-02-14T05:31:28;4.50;99.90
20204;DHT22;10261;49.010;12.034;2023-02-14T05:32:30;4.50;99.90
20204;DHT22;10261;49.010;12.034;2023-02-14T05:33:33;4.40;99.90
20204;DHT22;10261;49.010;12.034;2023-02-14T05:34:35;4.50;99.90
20204;DHT22;10261;49.010;12.034;2023-02-14T05:35:38;4.50;99.90
20204;DHT22;10261;49.010;12.034;2023-02-14T05:36:40;4.50;99.90
20204;DHT22;10261;49.010;12.034;2023-02-14T05:37:43;4.50;99.90
20204;DHT22;10261;49.010;12.034;2023-02-14T05:38:46;4.40;99.90
20204;DHT22;10261;49.010;12.034;2023-02-14T05:39:49;4.50;99.90
20204;DHT22;10261;49.010;12.034;2023-02-14T05:40:51;4.50;99.90
20204;DHT22;10261;49.010;12.034;2023-02-14T05:41:55;4.50;99.90
20204;DHT22;10261;49.010;12.034;2023-02-14T05:43:00;4.40;99.90
20204;DHT22;10261;49.010;12.034;2023-02-14T05:44:03;3.70;99.90
20204;DHT22;10261;49.010;12.034;2023-02-14T05:45:05;3.20;99.90
20204;DHT22;10261;49.010;12.034;2023-02-14T05:46:08;3.40;99.90
20204;DHT22;10261;49.010;12.034;2023-02-14T05:47:11;3.70;99.90
20204;DHT22;10261;49.010;12.034;2023-02-14T05:48:14;4.00;99.90
20204;DHT22;10261;49.010;12.034;2023-02-14T05:49:16;4.30;99.90
20204;DHT22;10261;49.010;12.034;2023-02-14T05:50:19;4.50;99.90
20204;DHT22;10261;49.010;12.034;2023-02-14T05:51:21;4.60;99.90
20204;DHT22;10261;49.010;12.034;2023-02-14T05:52:25;4.70;99.90
20204;DHT22;10261;49.010;12.034;2023-02-14T05:53:27;4.80;99.90
20204;DHT22;10261;49.010;12.034;2023-02-14T05:54:30;4.90;99.90
20204;DHT22;10261;49.010;12.034;2023-02-14T05:55:32;4.90;99.90
20204;DHT22;10261;49.010;12.034;2023-02-14T05:56:35;4.90;99.90
20204;DHT22;10261;49.010;12.034;2023-02-14T05:57:38;4.90;99.90
20204;DHT22;10261;49.010;12.034;2023-02-14T05:58:42;4.80;99.90
20204;DHT22;10261;49.010;12.034;2023-02-14T05:59:44;4.80;99.90
20204;DHT22;10261;49.010;12.034;2023-02-14T06:00:47;4.90;99.90
20204;DHT22;10261;49.010;12.034;2023-02-14T06:01:49;4.90;99.90
20204;DHT22;10261;49.010;12.034;2023-02-14T06:02:52;4.90;99.90
20204;DHT22;10261;49.010;12.034;2023-02-14T06:03:54;4.70;99.90
20204;DHT22;10261;49.010;12.034;2023-02-14T06:04:57;4.60;99.90
20204;DHT22;10261;49.010;12.034;2023-02-14T06:05:59;4.50;99.90
20204;DHT22;10261;49.010;12.034;2023-02-14T06:07:02;4.50;99.90
20204;DHT22;10261;49.010;12.034;2023-02-14T06:08:04;4.50;99.90
20204;DHT22;10261;49.010;12.034;2023-02-14T06:09:07;4.50;99.90
20204;DHT22;10261;49.010;12.034;2023-02-14T06:10:10;4.40;99.90
20204;DHT22;10261;49.010;12.034;2023-02-14T06:11:13;4.40;99.90
20204;DHT22;10261;49.010;12.034;2023-02-14T06:12:16;4.30;99.90
20204;DHT22;10261;49.010;12.034;2023-02-14T06:13:19;4.30;99.90
20204;DHT22;10261;49.010;12.034;2023-02-14T06:14:22;4.30;99.90
20204;DHT22;10261;49.010;12.034;2023-02-14T06:15:24;4.30;99.90
20204;DHT22;10261;49.010;12.034;2023-02-14T06:16:28;4.30;99.90
20204;DHT22;10261;49.010;12.034;2023-02-14T06:17:29;4.30;99.90
20204;DHT22;10261;49.010;12.034;2023-02-14T06:18:33;4.30;99.90
20204;DHT22;10261;49.010;12.034;2023-02-14T06:19:36;4.30;99.90
20204;DHT22;10261;49.010;12.034;2023-02-14T06:20:38;4.30;99.90
20204;DHT22;10261;49.010;12.034;2023-02-14T06:21:41;4.30;99.90
20204;DHT22;10261;49.010;12.034;2023-02-14T06:22:43;4.30;99.90
20204;DHT22;10261;49.010;12.034;2023-02-14T06:23:46;4.30;99.90
20204;DHT22;10261;49.010;12.034;2023-02-14T06:24:47;4.30;99.90
20204;DHT22;10261;49.010;12.034;2023-02-14T06:25:50;4.30;99.90
20204;DHT22;10261;49.010;12.034;2023-02-14T06:26:53;4.30;99.90
20204;DHT22;10261;49.010;12.034;2023-02-14T06:27:57;4.30;99.90
20204;DHT22;10261;49.010;12.034;2023-02-14T06:29:02;4.20;99.90
20204;DHT22;10261;49.010;12.034;2023-02-14T06:30:06;4.20;99.90
20204;DHT22;10261;49.010;12.034;2023-02-14T06:31:14;4.20;99.90
20204;DHT22;10261;49.010;12.034;2023-02-14T06:32:17;4.20;99.90
20204;DHT22;10261;49.010;12.034;2023-02-14T06:33:20;4.20;99.90
20204;DHT22;10261;49.010;12.034;2023-02-14T06:34:23;4.30;99.90
20204;DHT22;10261;49.010;12.034;2023-02-14T06:35:25;4.30;99.90
20204;DHT22;10261;49.010;12.034;2023-02-14T06:36:27;4.20;99.90
20204;DHT22;10261;49.010;12.034;2023-02-14T06:37:30;4.20;99.90
20204;DHT22;10261;49.010;12.034;2023-02-14T06:38:33;4.20;99.90
20204;DHT22;10261;49.010;12.034;2023-02-14T06:39:35;4.20;99.90
20204;DHT22;10261;49.010;12.034;2023-02-14T06:40:37;4.20;99.90
20204;DHT22;10261;49.010;12.034;2023-02-14T06:41:40;4.20;99.90
20204;DHT22;10261;49.010;12.034;2023-02-14T06:42:42;4.20;99.90
20204;DHT22;10261;49.010;12.034;2023-02-14T06:43:46;4.10;99.90
20204;DHT22;10261;49.010;12.034;2023-02-14T06:44:50;4.20;99.90
20204;DHT22;10261;49.010;12.034;2023-02-14T06:45:53;4.20;99.90
20204;DHT22;10261;49.010;12.034;2023-02-14T06:46:55;4.20;99.90
20204;DHT22;10261;49.010;12.034;2023-02-14T06:47:58;4.20;99.90
20204;DHT22;10261;49.010;12.034;2023-02-14T06:49:03;4.20;99.90
20204;DHT22;10261;49.010;12.034;2023-02-14T06:50:06;4.20;99.90
20204;DHT22;10261;49.010;12.034;2023-02-14T06:51:12;4.20;99.90
20204;DHT22;10261;49.010;12.034;2023-02-14T06:52:14;4.20;99.90
20204;DHT22;10261;49.010;12.034;2023-02-14T06:53:17;4.20;99.90
20204;DHT22;10261;49.010;12.034;2023-02-14T06:54:20;4.20;99.90
20204;DHT22;10261;49.010;12.034;2023-02-14T06:55:22;4.20;99.90
20204;DHT22;10261;49.010;12.034;2023-02-14T06:56:25;4.20;99.90
20204;DHT22;10261;49.010;12.034;2023-02-14T06:57:27;4.10;99.90
20204;DHT22;10261;49.010;12.034;2023-02-14T06:58:30;4.20;99.90
20204;DHT22;10261;49.010;12.034;2023-02-14T06:59:32;4.10;99.90
20204;DHT22;10261;49.010;12.034;2023-02-14T07:00:36;4.20;99.90
20204;DHT22;10261;49.010;12.034;2023-02-14T07:01:40;4.20;99.90
20204;DHT22;10261;49.010;12.034;2023-02-14T07:02:42;4.20;99.90
20204;DHT22;10261;49.010;12.034;2023-02-14T07:03:45;4.20;99.90
20204;DHT22;10261;49.010;12.034;2023-02-14T07:04:47;4.20;99.90